sensor_id;sensor_type;location;lat;lon;timestamp;pressure;altitude;pressure_sealevel;temperature;humidity
65832;BME280;52593;42.648;23.332;2022-12-07T00:02:14;94549.91;;;3.76;100.00
65832;BME280;52593;42.648;23.332;2022-12-07T00:04:39;94555.88;;;3.88;100.00
65832;BME280;52593;42.648;23.332;2022-12-07T00:07:05;94548.34;;;3.73;100.00
65832;BME280;52593;42.648;23.332;2022-12-07T00:09:30;94554.25;;;3.48;100.00
65832;BME280;52593;42.648;23.332;2022-12-07T00:11:56;94537.81;;;3.54;100.00
65832;BME280;52593;42.648;23.332;2022-12-07T00:14:21;94545.59;;;3.65;100.00
65832;BME280;52593;42.648;23.332;2022-12-07T00:16:49;94535.56;;;3.69;100.00
65832;BME280;52593;42.648;23.332;2022-12-07T00:19:16;94537.97;;;3.52;100.00
65832;BME280;52593;42.648;23.332;2022-12-07T00:21:42;94540.59;;;3.52;100.00
65832;BME280;52593;42.648;23.332;2022-12-07T00:24:07;94534.47;;;3.52;100.00
65832;BME280;52593;42.648;23.332;2022-12-07T00:26:35;94531.56;;;3.45;100.00
65832;BME280;52593;42.648;23.332;2022-12-07T00:29:27;94533.63;;;3.51;100.00
65832;BME280;52593;42.648;23.332;2022-12-07T00:31:53;94542.41;;;3.62;100.00
65832;BME280;52593;42.648;23.332;2022-12-07T00:34:20;94539.63;;;3.53;100.00
65832;BME280;52593;42.648;23.332;2022-12-07T00:36:45;94538.34;;;3.67;100.00
65832;BME280;52593;42.648;23.332;2022-12-07T00:39:11;94544.31;;;3.79;100.00
65832;BME280;52593;42.648;23.332;2022-12-07T00:41:36;94544.22;;;3.51;100.00
65832;BME280;52593;42.648;23.332;2022-12-07T00:44:02;94536.13;;;3.63;100.00
65832;BME280;52593;42.648;23.332;2022-12-07T00:46:27;94534.91;;;3.57;100.00
65832;BME280;52593;42.648;23.332;2022-12-07T00:48:53;94539.19;;;3.58;100.00
65832;BME280;52593;42.648;23.332;2022-12-07T00:51:23;94536.56;;;3.48;100.00
65832;BME280;52593;42.648;23.332;2022-12-07T00:53:49;94527.22;;;3.44;100.00
65832;BME280;52593;42.648;23.332;2022-12-07T00:56:18;94526.53;;;3.42;100.00
65832;BME280;52593;42.648;23.332;2022-12-07T00:58:44;94531.56;;;3.26;100.00
65832;BME280;52593;42.648;23.332;2022-12-07T01:01:14;94538.53;;;3.27;100.00
65832;BME280;52593;42.648;23.332;2022-12-07T01:03:39;94533.09;;;3.38;100.00
65832;BME280;52593;42.648;23.332;2022-12-07T01:06:05;94538.50;;;3.36;100.00
65832;BME280;52593;42.648;23.332;2022-12-07T01:08:30;94535.72;;;3.18;100.00
65832;BME280;52593;42.648;23.332;2022-12-07T01:11:00;94536.00;;;3.35;100.00
65832;BME280;52593;42.648;23.332;2022-12-07T01:13:26;94532.38;;;3.46;100.00
65832;BME280;52593;42.648;23.332;2022-12-07T01:15:57;94520.97;;;3.45;100.00
65832;BME280;52593;42.648;23.332;2022-12-07T01:18:23;94521.09;;;3.53;100.00
65832;BME280;52593;42.648;23.332;2022-12-07T01:21:04;94514.56;;;3.38;100.00
65832;BME280;52593;42.648;23.332;2022-12-07T01:23:31;94518.06;;;3.38;100.00
65832;BME280;52593;42.648;23.332;2022-12-07T01:25:59;94516.94;;;3.41;100.00
65832;BME280;52593;42.648;23.332;2022-12-07T01:28:25;94513.41;;;3.70;100.00
65832;BME280;52593;42.648;23.332;2022-12-07T01:30:56;94510.38;;;3.65;100.00
65832;BME280;52593;42.648;23.332;2022-12-07T01:33:21;94506.78;;;3.36;100.00
65832;BME280;52593;42.648;23.332;2022-12-07T01:35:46;94502.06;;;3.40;100.00
65832;BME280;52593;42.648;23.332;2022-12-07T01:38:12;94505.94;;;3.36;100.00
65832;BME280;52593;42.648;23.332;2022-12-07T01:40:37;94510.00;;;3.40;100.00
65832;BME280;52593;42.648;23.332;2022-12-07T01:43:09;94505.94;;;3.36;100.00
65832;BME280;52593;42.648;23.332;2022-12-07T01:45:40;94514.72;;;3.36;100.00
65832;BME280;52593;42.648;23.332;2022-12-07T01:48:07;94518.03;;;3.48;100.00
65832;BME280;52593;42.648;23.332;2022-12-07T01:50:35;94510.69;;;3.32;100.00
65832;BME280;52593;42.648;23.332;2022-12-07T01:53:03;94513.06;;;3.35;100.00
65832;BME280;52593;42.648;23.332;2022-12-07T01:55:29;94511.09;;;3.37;100.00
65832;BME280;52593;42.648;23.332;2022-12-07T01:57:55;94508.88;;;3.33;100.00
65832;BME280;52593;42.648;23.332;2022-12-07T02:00:21;94491.78;;;3.17;100.00
65832;BME280;52593;42.648;23.332;2022-12-07T02:02:57;94497.06;;;3.37;100.00
65832;BME280;52593;42.648;23.332;2022-12-07T02:05:25;94486.03;;;3.42;100.00
65832;BME280;52593;42.648;23.332;2022-12-07T02:07:53;94487.72;;;3.23;100.00
65832;BME280;52593;42.648;23.332;2022-12-07T02:10:23;94480.75;;;3.32;100.00
65832;BME280;52593;42.648;23.332;2022-12-07T02:12:56;94485.19;;;3.41;100.00
65832;BME280;52593;42.648;23.332;2022-12-07T02:15:29;94493.97;;;3.32;100.00
65832;BME280;52593;42.648;23.332;2022-12-07T02:18:52;94501.50;;;3.17;100.00
65832;BME280;52593;42.648;23.332;2022-12-07T02:21:16;94502.75;;;3.22;100.00
65832;BME280;52593;42.648;23.332;2022-12-07T02:29:21;94501.38;;;3.28;100.00
65832;BME280;52593;42.648;23.332;2022-12-07T02:34:30;94478.91;;;3.52;100.00
65832;BME280;52593;42.648;23.332;2022-12-07T02:37:01;94475.59;;;3.30;100.00
65832;BME280;52593;42.648;23.332;2022-12-07T02:39:47;94478.69;;;3.35;100.00
65832;BME280;52593;42.648;23.332;2022-12-07T02:42:19;94482.44;;;3.33;100.00
65832;BME280;52593;42.648;23.332;2022-12-07T02:44:47;94485.63;;;3.27;100.00
65832;BME280;52593;42.648;23.332;2022-12-07T02:47:15;94484.25;;;3.03;100.00
65832;BME280;52593;42.648;23.332;2022-12-07T02:49:42;94481.44;;;3.44;100.00
65832;BME280;52593;42.648;23.332;2022-12-07T02:52:07;94488.13;;;3.38;100.00
65832;BME280;52593;42.648;23.332;2022-12-07T02:54:33;94487.31;;;3.08;100.00
65832;BME280;52593;42.648;23.332;2022-12-07T02:57:25;94482.31;;;3.05;100.00
65832;BME280;52593;42.648;23.332;2022-12-07T03:00:11;94476.59;;;2.90;100.00
65832;BME280;52593;42.648;23.332;2022-12-07T03:08:28;94467.97;;;2.78;100.00
65832;BME280;52593;42.648;23.332;2022-12-07T03:10:58;94460.03;;;2.78;100.00
65832;BME280;52593;42.648;23.332;2022-12-07T03:13:48;94460.47;;;2.93;100.00
65832;BME280;52593;42.648;23.332;2022-12-07T03:16:40;94456.97;;;2.73;100.00
65832;BME280;52593;42.648;23.332;2022-12-07T03:19:13;94452.25;;;2.87;100.00
65832;BME280;52593;42.648;23.332;2022-12-07T03:21:42;94460.72;;;2.71;100.00
65832;BME280;52593;42.648;23.332;2022-12-07T03:24:12;94466.16;;;2.89;100.00
65832;BME280;52593;42.648;23.332;2022-12-07T03:26:44;94472.41;;;2.88;100.00
65832;BME280;52593;42.648;23.332;2022-12-07T03:29:19;94457.28;;;2.90;100.00
65832;BME280;52593;42.648;23.332;2022-12-07T03:31:50;94463.09;;;2.64;100.00
65832;BME280;52593;42.648;23.332;2022-12-07T03:36:54;94464.75;;;2.84;100.00
65832;BME280;52593;42.648;23.332;2022-12-07T03:39:56;94467.97;;;2.78;100.00
65832;BME280;52593;42.648;23.332;2022-12-07T03:42:15;94465.06;;;2.91;100.00
65832;BME280;52593;42.648;23.332;2022-12-07T03:44:41;94453.66;;;2.71;100.00
65832;BME280;52593;42.648;23.332;2022-12-07T03:47:45;94456.97;;;2.63;100.00
65832;BME280;52593;42.648;23.332;2022-12-07T03:53:54;94461.97;;;2.47;100.00
65832;BME280;52593;42.648;23.332;2022-12-07T03:55:54;94456.13;;;2.53;100.00
65832;BME280;52593;42.648;23.332;2022-12-07T03:58:21;94458.94;;;2.81;100.00
65832;BME280;52593;42.648;23.332;2022-12-07T04:00:49;94450.72;;;2.74;100.00
65832;BME280;52593;42.648;23.332;2022-12-07T04:03:15;94450.31;;;2.79;100.00
65832;BME280;52593;42.648;23.332;2022-12-07T04:05:40;94454.06;;;2.66;100.00
65832;BME280;52593;42.648;23.332;2022-12-07T04:08:06;94455.84;;;2.66;100.00
65832;BME280;52593;42.648;23.332;2022-12-07T04:10:32;94457.66;;;2.75;100.00
65832;BME280;52593;42.648;23.332;2022-12-07T04:12:57;94452.22;;;2.57;100.00
65832;BME280;52593;42.648;23.332;2022-12-07T04:15:23;94451.25;;;2.48;100.00
65832;BME280;52593;42.648;23.332;2022-12-07T04:17:48;94448.75;;;2.57;100.00
65832;BME280;52593;42.648;23.332;2022-12-07T04:20:14;94451.56;;;2.65;100.00
65832;BME280;52593;42.648;23.332;2022-12-07T04:22:39;94449.16;;;2.42;100.00
65832;BME280;52593;42.648;23.332;2022-12-07T04:25:05;94452.50;;;2.44;100.00
65832;BME280;52593;42.648;23.332;2022-12-07T04:27:30;94453.31;;;2.35;100.00
65832;BME280;52593;42.648;23.332;2022-12-07T04:29:56;94454.16;;;2.45;100.00
65832;BME280;52593;42.648;23.332;2022-12-07T04:32:22;94452.94;;;2.69;100.00
65832;BME280;52593;42.648;23.332;2022-12-07T04:34:48;94454.44;;;2.62;100.00
65832;BME280;52593;42.648;23.332;2022-12-07T04:37:13;94455.44;;;2.61;100.00
65832;BME280;52593;42.648;23.332;2022-12-07T04:39:39;94461.28;;;2.55;100.00
65832;BME280;52593;42.648;23.332;2022-12-07T04:42:04;94462.91;;;2.46;100.00
65832;BME280;52593;42.648;23.332;2022-12-07T04:44:30;94460.81;;;2.49;100.00
65832;BME280;52593;42.648;23.332;2022-12-07T04:46:56;94471.69;;;2.56;100.00
65832;BME280;52593;42.648;23.332;2022-12-07T04:49:22;94461.78;;;2.39;100.00
65832;BME280;52593;42.648;23.332;2022-12-07T04:51:48;94472.03;;;2.22;100.00
65832;BME280;52593;42.648;23.332;2022-12-07T04:54:15;94465.56;;;2.46;100.00
65832;BME280;52593;42.648;23.332;2022-12-07T04:56:41;94460.00;;;2.49;100.00
65832;BME280;52593;42.648;23.332;2022-12-07T04:59:06;94458.63;;;2.55;100.00
65832;BME280;52593;42.648;23.332;2022-12-07T05:01:32;94456.66;;;2.47;100.00
65832;BME280;52593;42.648;23.332;2022-12-07T05:03:58;94462.59;;;2.29;100.00
65832;BME280;52593;42.648;23.332;2022-12-07T05:06:23;94471.72;;;2.16;100.00
65832;BME280;52593;42.648;23.332;2022-12-07T05:08:49;94467.75;;;2.31;100.00
65832;BME280;52593;42.648;23.332;2022-12-07T05:11:14;94468.47;;;2.33;100.00
65832;BME280;52593;42.648;23.332;2022-12-07T05:14:02;94467.19;;;2.27;100.00
65832;BME280;52593;42.648;23.332;2022-12-07T05:16:27;94482.34;;;2.35;100.00
65832;BME280;52593;42.648;23.332;2022-12-07T05:18:54;94480.25;;;2.29;100.00
65832;BME280;52593;42.648;23.332;2022-12-07T05:21:19;94474.16;;;2.28;100.00
65832;BME280;52593;42.648;23.332;2022-12-07T05:23:44;94466.81;;;2.52;100.00
65832;BME280;52593;42.648;23.332;2022-12-07T05:26:10;94466.00;;;2.61;100.00
65832;BME280;52593;42.648;23.332;2022-12-07T05:28:35;94457.09;;;2.52;100.00
65832;BME280;52593;42.648;23.332;2022-12-07T05:31:01;94465.00;;;2.62;100.00
65832;BME280;52593;42.648;23.332;2022-12-07T05:33:26;94473.94;;;2.61;100.00
65832;BME280;52593;42.648;23.332;2022-12-07T05:35:52;94473.22;;;2.59;100.00
65832;BME280;52593;42.648;23.332;2022-12-07T05:38:17;94467.66;;;2.62;100.00
65832;BME280;52593;42.648;23.332;2022-12-07T05:40:42;94462.94;;;2.65;100.00
65832;BME280;52593;42.648;23.332;2022-12-07T05:43:08;94453.31;;;2.45;100.00
65832;BME280;52593;42.648;23.332;2022-12-07T05:45:33;94456.53;;;2.48;100.00
65832;BME280;52593;42.648;23.332;2022-12-07T05:47:59;94450.84;;;2.53;100.00
65832;BME280;52593;42.648;23.332;2022-12-07T05:50:24;94455.56;;;2.69;100.00
65832;BME280;52593;42.648;23.332;2022-12-07T05:52:50;94452.53;;;2.64;100.00
65832;BME280;52593;42.648;23.332;2022-12-07T05:55:15;94450.84;;;2.63;100.00
65832;BME280;52593;42.648;23.332;2022-12-07T05:57:40;94464.22;;;2.71;100.00
65832;BME280;52593;42.648;23.332;2022-12-07T06:00:26;94456.00;;;2.64;100.00
65832;BME280;52593;42.648;23.332;2022-12-07T06:02:51;94453.63;;;2.61;100.00
65832;BME280;52593;42.648;23.332;2022-12-07T06:05:16;94451.97;;;2.70;100.00
65832;BME280;52593;42.648;23.332;2022-12-07T06:07:42;94447.63;;;2.49;100.00
65832;BME280;52593;42.648;23.332;2022-12-07T06:10:07;94461.53;;;2.61;100.00
65832;BME280;52593;42.648;23.332;2022-12-07T06:12:33;94453.78;;;2.70;100.00
65832;BME280;52593;42.648;23.332;2022-12-07T06:14:58;94455.00;;;2.56;100.00
65832;BME280;52593;42.648;23.332;2022-12-07T06:17:24;94456.13;;;2.63;100.00
65832;BME280;52593;42.648;23.332;2022-12-07T06:19:50;94454.47;;;2.72;100.00
65832;BME280;52593;42.648;23.332;2022-12-07T06:22:15;94460.59;;;2.82;100.00
65832;BME280;52593;42.648;23.332;2022-12-07T06:24:41;94463.38;;;2.80;100.00
65832;BME280;52593;42.648;23.332;2022-12-07T06:27:06;94464.34;;;3.09;100.00
65832;BME280;52593;42.648;23.332;2022-12-07T06:29:32;94466.72;;;2.92;100.00
65832;BME280;52593;42.648;23.332;2022-12-07T06:31:58;94470.31;;;3.11;100.00
65832;BME280;52593;42.648;23.332;2022-12-07T06:34:24;94469.50;;;3.10;100.00
65832;BME280;52593;42.648;23.332;2022-12-07T06:36:50;94468.25;;;3.14;100.00
65832;BME280;52593;42.648;23.332;2022-12-07T06:39:19;94469.34;;;2.92;100.00
65832;BME280;52593;42.648;23.332;2022-12-07T06:41:46;94461.25;;;3.23;100.00
65832;BME280;52593;42.648;23.332;2022-12-07T06:44:11;94470.44;;;3.48;100.00
65832;BME280;52593;42.648;23.332;2022-12-07T06:46:37;94481.44;;;3.24;100.00
65832;BME280;52593;42.648;23.332;2022-12-07T06:49:03;94480.59;;;3.33;100.00
65832;BME280;52593;42.648;23.332;2022-12-07T06:51:29;94473.66;;;3.22;100.00
65832;BME280;52593;42.648;23.332;2022-12-07T06:53:55;94468.81;;;3.08;100.00
65832;BME280;52593;42.648;23.332;2022-12-07T06:56:20;94469.75;;;3.17;100.00
65832;BME280;52593;42.648;23.332;2022-12-07T06:58:46;94467.94;;;3.47;100.00
65832;BME280;52593;42.648;23.332;2022-12-07T07:01:17;94476.28;;;3.42;100.00
65832;BME280;52593;42.648;23.332;2022-12-07T07:03:44;94479.47;;;3.55;100.00
65832;BME280;52593;42.648;23.332;2022-12-07T07:06:09;94481.88;;;3.39;100.00
65832;BME280;52593;42.648;23.332;2022-12-07T07:08:35;94479.88;;;3.61;100.00
65832;BME280;52593;42.648;23.332;2022-12-07T07:11:01;94477.50;;;3.57;100.00
65832;BME280;52593;42.648;23.332;2022-12-07T07:13:27;94479.50;;;3.36;100.00
65832;BME280;52593;42.648;23.332;2022-12-07T07:15:53;94472.69;;;3.33;100.00
65832;BME280;52593;42.648;23.332;2022-12-07T07:18:18;94471.44;;;3.37;100.00
65832;BME280;52593;42.648;23.332;2022-12-07T07:20:44;94466.56;;;3.23;100.00
65832;BME280;52593;42.648;23.332;2022-12-07T07:23:09;94477.13;;;3.33;100.00
65832;BME280;52593;42.648;23.332;2022-12-07T07:25:35;94473.38;;;3.35;100.00
65832;BME280;52593;42.648;23.332;2022-12-07T07:28:00;94473.63;;;3.62;100.00
65832;BME280;52593;42.648;23.332;2022-12-07T07:30:26;94477.69;;;3.46;100.00
65832;BME280;52593;42.648;23.332;2022-12-07T07:32:51;94482.47;;;3.80;100.00
65832;BME280;52593;42.648;23.332;2022-12-07T07:35:17;94487.59;;;3.91;100.00
65832;BME280;52593;42.648;23.332;2022-12-07T07:37:42;94490.53;;;3.88;100.00
65832;BME280;52593;42.648;23.332;2022-12-07T07:40:09;94486.19;;;3.97;100.00
65832;BME280;52593;42.648;23.332;2022-12-07T07:42:34;94486.50;;;4.22;100.00
65832;BME280;52593;42.648;23.332;2022-12-07T07:45:00;94486.56;;;4.02;100.00
65832;BME280;52593;42.648;23.332;2022-12-07T07:47:25;94484.16;;;3.71;100.00
65832;BME280;52593;42.648;23.332;2022-12-07T07:49:50;94477.97;;;3.90;100.00
65832;BME280;52593;42.648;23.332;2022-12-07T07:52:16;94482.94;;;4.03;100.00
65832;BME280;52593;42.648;23.332;2022-12-07T07:54:41;94474.47;;;4.00;100.00
65832;BME280;52593;42.648;23.332;2022-12-07T07:57:07;94474.91;;;3.95;100.00
65832;BME280;52593;42.648;23.332;2022-12-07T07:59:32;94487.88;;;3.88;100.00
65832;BME280;52593;42.648;23.332;2022-12-07T08:01:58;94478.09;;;3.99;100.00
65832;BME280;52593;42.648;23.332;2022-12-07T08:04:23;94480.63;;;4.28;100.00
65832;BME280;52593;42.648;23.332;2022-12-07T08:06:49;94483.31;;;4.18;98.74
65832;BME280;52593;42.648;23.332;2022-12-07T08:09:14;94480.09;;;4.15;99.91
65832;BME280;52593;42.648;23.332;2022-12-07T08:11:39;94476.25;;;4.09;98.91
65832;BME280;52593;42.648;23.332;2022-12-07T08:14:05;94477.59;;;4.13;99.73
65832;BME280;52593;42.648;23.332;2022-12-07T08:16:30;94472.59;;;4.10;99.79
65832;BME280;52593;42.648;23.332;2022-12-07T08:18:56;94477.03;;;4.19;99.53
65832;BME280;52593;42.648;23.332;2022-12-07T08:21:21;94477.91;;;4.10;99.63
65832;BME280;52593;42.648;23.332;2022-12-07T08:23:46;94485.38;;;4.24;99.47
65832;BME280;52593;42.648;23.332;2022-12-07T08:26:15;94477.75;;;4.11;100.00
65832;BME280;52593;42.648;23.332;2022-12-07T08:28:41;94483.69;;;4.23;99.86
65832;BME280;52593;42.648;23.332;2022-12-07T08:31:09;94487.28;;;4.32;98.59
65832;BME280;52593;42.648;23.332;2022-12-07T08:33:36;94481.44;;;4.28;99.08
65832;BME280;52593;42.648;23.332;2022-12-07T08:36:07;94470.75;;;4.20;98.78
65832;BME280;52593;42.648;23.332;2022-12-07T08:38:34;94475.91;;;4.22;99.29
65832;BME280;52593;42.648;23.332;2022-12-07T08:41:00;94481.72;;;4.25;98.89
65832;BME280;52593;42.648;23.332;2022-12-07T08:43:26;94478.16;;;4.17;99.52
65832;BME280;52593;42.648;23.332;2022-12-07T08:46:11;94468.00;;;4.12;99.81
65832;BME280;52593;42.648;23.332;2022-12-07T08:48:42;94470.16;;;3.99;100.00
65832;BME280;52593;42.648;23.332;2022-12-07T08:51:10;94470.75;;;3.83;100.00
65832;BME280;52593;42.648;23.332;2022-12-07T08:53:37;94470.41;;;4.05;100.00
65832;BME280;52593;42.648;23.332;2022-12-07T08:56:04;94463.91;;;4.27;100.00
65832;BME280;52593;42.648;23.332;2022-12-07T08:58:32;94462.50;;;4.23;99.63
65832;BME280;52593;42.648;23.332;2022-12-07T09:00:58;94461.53;;;4.24;99.76
65832;BME280;52593;42.648;23.332;2022-12-07T09:03:23;94456.72;;;4.38;98.97
65832;BME280;52593;42.648;23.332;2022-12-07T09:05:49;94447.84;;;4.29;98.47
65832;BME280;52593;42.648;23.332;2022-12-07T09:08:14;94447.97;;;4.55;98.54
65832;BME280;52593;42.648;23.332;2022-12-07T09:10:40;94450.38;;;4.49;97.38
65832;BME280;52593;42.648;23.332;2022-12-07T09:13:06;94453.66;;;4.60;97.41
65832;BME280;52593;42.648;23.332;2022-12-07T09:15:31;94445.41;;;4.63;97.29
65832;BME280;52593;42.648;23.332;2022-12-07T09:17:57;94439.13;;;4.64;97.44
65832;BME280;52593;42.648;23.332;2022-12-07T09:20:22;94434.91;;;4.72;96.29
65832;BME280;52593;42.648;23.332;2022-12-07T09:22:48;94429.66;;;4.80;96.20
65832;BME280;52593;42.648;23.332;2022-12-07T09:25:14;94427.69;;;4.82;96.37
65832;BME280;52593;42.648;23.332;2022-12-07T09:27:39;94436.41;;;4.92;96.16
65832;BME280;52593;42.648;23.332;2022-12-07T09:30:06;94440.97;;;5.00;95.48
65832;BME280;52593;42.648;23.332;2022-12-07T09:32:31;94441.94;;;4.99;94.28
65832;BME280;52593;42.648;23.332;2022-12-07T09:34:57;94432.13;;;5.17;93.57
65832;BME280;52593;42.648;23.332;2022-12-07T09:37:22;94428.13;;;5.31;92.93
65832;BME280;52593;42.648;23.332;2022-12-07T09:39:47;94417.31;;;5.51;93.45
65832;BME280;52593;42.648;23.332;2022-12-07T09:42:32;94411.84;;;5.52;92.31
65832;BME280;52593;42.648;23.332;2022-12-07T09:44:59;94414.44;;;5.44;91.99
65832;BME280;52593;42.648;23.332;2022-12-07T09:47:26;94408.84;;;5.47;91.51
65832;BME280;52593;42.648;23.332;2022-12-07T09:50:04;94406.34;;;5.46;92.00
65832;BME280;52593;42.648;23.332;2022-12-07T09:52:30;94408.53;;;5.50;91.55
65832;BME280;52593;42.648;23.332;2022-12-07T09:54:57;94410.75;;;5.63;91.36
65832;BME280;52593;42.648;23.332;2022-12-07T09:57:30;94400.97;;;5.64;90.62
65832;BME280;52593;42.648;23.332;2022-12-07T10:00:00;94404.56;;;5.81;90.35
65832;BME280;52593;42.648;23.332;2022-12-07T10:02:38;94389.84;;;5.95;90.18
65832;BME280;52593;42.648;23.332;2022-12-07T10:05:12;94387.09;;;6.04;89.18
65832;BME280;52593;42.648;23.332;2022-12-07T10:07:38;94382.09;;;6.01;88.74
65832;BME280;52593;42.648;23.332;2022-12-07T10:10:09;94381.44;;;5.99;88.53
65832;BME280;52593;42.648;23.332;2022-12-07T10:15:57;94374.81;;;6.03;88.80
65832;BME280;52593;42.648;23.332;2022-12-07T10:18:37;94364.69;;;6.07;88.17
65832;BME280;52593;42.648;23.332;2022-12-07T10:24:05;94374.34;;;6.75;85.84
65832;BME280;52593;42.648;23.332;2022-12-07T10:28:59;94365.47;;;6.50;85.24
65832;BME280;52593;42.648;23.332;2022-12-07T10:31:25;94357.03;;;6.71;85.67
65832;BME280;52593;42.648;23.332;2022-12-07T10:33:59;94349.06;;;6.71;84.95
65832;BME280;52593;42.648;23.332;2022-12-07T10:36:35;94349.06;;;6.71;84.86
65832;BME280;52593;42.648;23.332;2022-12-07T10:39:24;94351.69;;;6.47;86.06
65832;BME280;52593;42.648;23.332;2022-12-07T10:44:23;94337.59;;;6.54;86.96
65832;BME280;52593;42.648;23.332;2022-12-07T10:47:05;94347.75;;;6.75;85.49
65832;BME280;52593;42.648;23.332;2022-12-07T10:57:19;94319.00;;;6.79;84.92
65832;BME280;52593;42.648;23.332;2022-12-07T11:00:19;94305.50;;;6.64;85.43
65832;BME280;52593;42.648;23.332;2022-12-07T11:05:45;94307.00;;;6.75;84.29
65832;BME280;52593;42.648;23.332;2022-12-07T11:08:44;94303.53;;;6.74;84.21
65832;BME280;52593;42.648;23.332;2022-12-07T11:17:13;94302.53;;;7.00;82.39
65832;BME280;52593;42.648;23.332;2022-12-07T11:25:15;94290.84;;;7.18;82.70
65832;BME280;52593;42.648;23.332;2022-12-07T11:31:13;94280.53;;;7.31;81.42
65832;BME280;52593;42.648;23.332;2022-12-07T11:33:51;94276.50;;;7.43;81.19
65832;BME280;52593;42.648;23.332;2022-12-07T11:38:56;94265.34;;;8.19;77.61
65832;BME280;52593;42.648;23.332;2022-12-07T11:41:28;94266.66;;;7.92;78.58
65832;BME280;52593;42.648;23.332;2022-12-07T11:44:30;94268.38;;;8.47;76.57
65832;BME280;52593;42.648;23.332;2022-12-07T11:47:28;94263.78;;;8.01;77.52
65832;BME280;52593;42.648;23.332;2022-12-07T11:50:26;94257.66;;;8.24;77.29
65832;BME280;52593;42.648;23.332;2022-12-07T11:53:03;94258.84;;;8.91;74.60
65832;BME280;52593;42.648;23.332;2022-12-07T12:00:51;94253.41;;;8.84;74.12
65832;BME280;52593;42.648;23.332;2022-12-07T12:03:30;94243.72;;;8.68;73.91
65832;BME280;52593;42.648;23.332;2022-12-07T12:05:58;94248.31;;;8.74;73.74
65832;BME280;52593;42.648;23.332;2022-12-07T12:08:31;94237.28;;;12.31;61.33
65832;BME280;52593;42.648;23.332;2022-12-07T12:21:33;94211.56;;;14.09;52.57
65832;BME280;52593;42.648;23.332;2022-12-07T12:24:12;94225.38;;;12.54;55.81
65832;BME280;52593;42.648;23.332;2022-12-07T12:26:50;94205.31;;;14.93;50.12
65832;BME280;52593;42.648;23.332;2022-12-07T12:29:42;94202.38;;;13.72;53.07
65832;BME280;52593;42.648;23.332;2022-12-07T12:32:15;94215.91;;;11.62;58.64
65832;BME280;52593;42.648;23.332;2022-12-07T12:42:57;94197.84;;;11.77;61.04
65832;BME280;52593;42.648;23.332;2022-12-07T12:45:28;94189.41;;;11.38;61.04
65832;BME280;52593;42.648;23.332;2022-12-07T12:48:00;94195.75;;;11.66;59.66
65832;BME280;52593;42.648;23.332;2022-12-07T12:50:29;94194.28;;;11.28;60.48
65832;BME280;52593;42.648;23.332;2022-12-07T12:53:15;94195.63;;;12.42;56.58
65832;BME280;52593;42.648;23.332;2022-12-07T13:03:52;94214.06;;;9.16;68.93
65832;BME280;52593;42.648;23.332;2022-12-07T13:08:49;94195.78;;;10.16;65.23
65832;BME280;52593;42.648;23.332;2022-12-07T13:13:43;94194.44;;;9.69;67.13
65832;BME280;52593;42.648;23.332;2022-12-07T13:31:49;94203.03;;;9.34;68.09
65832;BME280;52593;42.648;23.332;2022-12-07T13:34:33;94204.44;;;8.77;71.05
65832;BME280;52593;42.648;23.332;2022-12-07T13:37:10;94200.66;;;8.71;71.66
65832;BME280;52593;42.648;23.332;2022-12-07T13:39:55;94205.16;;;8.71;72.02
65832;BME280;52593;42.648;23.332;2022-12-07T13:42:32;94193.75;;;8.62;72.57
65832;BME280;52593;42.648;23.332;2022-12-07T13:45:00;94196.88;;;8.43;74.49
65832;BME280;52593;42.648;23.332;2022-12-07T13:49:54;94210.91;;;8.36;75.27
65832;BME280;52593;42.648;23.332;2022-12-07T13:52:24;94202.06;;;8.13;76.43
65832;BME280;52593;42.648;23.332;2022-12-07T13:57:30;94180.38;;;8.39;74.80
65832;BME280;52593;42.648;23.332;2022-12-07T13:59:59;94176.31;;;8.51;77.07
65832;BME280;52593;42.648;23.332;2022-12-07T14:02:28;94175.56;;;8.19;77.01
65832;BME280;52593;42.648;23.332;2022-12-07T14:07:58;94194.06;;;8.36;75.80
65832;BME280;52593;42.648;23.332;2022-12-07T14:12:56;94193.97;;;8.29;75.17
65832;BME280;52593;42.648;23.332;2022-12-07T14:15:26;94206.16;;;8.24;75.59
65832;BME280;52593;42.648;23.332;2022-12-07T14:17:54;94190.13;;;8.09;75.16
65832;BME280;52593;42.648;23.332;2022-12-07T14:22:56;94207.34;;;7.98;77.41
65832;BME280;52593;42.648;23.332;2022-12-07T14:25:23;94214.53;;;7.58;79.57
65832;BME280;52593;42.648;23.332;2022-12-07T14:27:59;94213.41;;;7.52;80.82
65832;BME280;52593;42.648;23.332;2022-12-07T14:30:34;94206.47;;;7.35;82.89
65832;BME280;52593;42.648;23.332;2022-12-07T14:33:01;94200.88;;;7.21;83.44
65832;BME280;52593;42.648;23.332;2022-12-07T14:35:27;94206.81;;;7.40;81.62
65832;BME280;52593;42.648;23.332;2022-12-07T14:37:53;94200.34;;;7.34;81.17
65832;BME280;52593;42.648;23.332;2022-12-07T14:40:24;94195.56;;;7.13;83.66
65832;BME280;52593;42.648;23.332;2022-12-07T14:42:51;94197.41;;;7.04;84.52
65832;BME280;52593;42.648;23.332;2022-12-07T14:45:21;94205.94;;;6.91;84.06
65832;BME280;52593;42.648;23.332;2022-12-07T14:47:47;94200.47;;;6.93;84.50
65832;BME280;52593;42.648;23.332;2022-12-07T14:50:15;94202.47;;;6.91;84.78
65832;BME280;52593;42.648;23.332;2022-12-07T14:52:42;94198.69;;;6.60;87.28
65832;BME280;52593;42.648;23.332;2022-12-07T14:55:20;94204.34;;;6.57;87.40
65832;BME280;52593;42.648;23.332;2022-12-07T14:57:47;94212.81;;;6.36;88.17
65832;BME280;52593;42.648;23.332;2022-12-07T15:00:14;94210.00;;;6.30;88.44
65832;BME280;52593;42.648;23.332;2022-12-07T15:02:40;94208.13;;;6.14;89.49
65832;BME280;52593;42.648;23.332;2022-12-07T15:05:05;94214.94;;;6.00;90.84
65832;BME280;52593;42.648;23.332;2022-12-07T15:07:31;94211.78;;;6.04;90.83
65832;BME280;52593;42.648;23.332;2022-12-07T15:09:56;94219.59;;;5.98;90.70